Time;durP1;ratioP1;P1;durP2;ratioP2;P2;SDS_P1;SDS_P2;PMS_P1;PMS_P2;Temp;Humidity;BMP_temperature;BMP_pressure;BME280_temperature;BME280_humidity;BME280_pressure;Samples;Min_cycle;Max_cycle;Signal;HPM_P1;HPM_P2
2022/06/23 00:01:18;;;;;;;8.93;1.00;;;;;;;;;;5084882;28;20109;-68
2022/06/23 00:03:48;;;;;;;7.53;1.15;;;;;;;;;;5082380;28;20036;-68
2022/06/23 00:06:33;;;;;;;23.95;1.58;;;;;;;;;;5085076;28;20036;-68
2022/06/23 00:09:00;;;;;;;6.32;1.20;;;;;;;;;;5082328;28;20461;-67
2022/06/23 00:11:29;;;;;;;4.95;0.90;;;;;;;;;;5083626;28;20040;-66
2022/06/23 00:14:13;;;;;;;6.63;0.70;;;;;;;;;;5083476;28;20055;-67
2022/06/23 00:16:40;;;;;;;4.97;0.95;;;;;;;;;;5082000;28;20044;-68
2022/06/23 00:19:07;;;;;;;10.63;0.95;;;;;;;;;;5082716;28;20044;-68
2022/06/23 00:21:35;;;;;;;6.30;0.52;;;;;;;;;;5073789;28;20036;-67
2022/06/23 00:24:38;;;;;;;1.98;0.60;;;;;;;;;;5086130;28;20119;-70
2022/06/23 00:27:08;;;;;;;;;;;;;;;;;;5069453;28;20095;-68
2022/06/23 00:29:35;;;;;;;3.33;0.63;;;;;;;;;;5102608;28;19923;-66
2022/06/23 00:32:06;;;;;;;1.50;0.57;;;;;;;;;;5106304;28;20051;-66
2022/06/23 00:34:39;;;;;;;6.97;0.80;;;;;;;;;;5094181;28;20031;-67
2022/06/23 00:37:06;;;;;;;3.70;0.50;;;;;;;;;;5083477;28;20612;-69
2022/06/23 00:39:42;;;;;;;2.70;0.60;;;;;;;;;;5104776;27;20039;-68
2022/06/23 00:42:23;;;;;;;3.38;0.77;;;;;;;;;;5107405;27;20035;-67
2022/06/23 00:44:50;;;;;;;3.38;0.55;;;;;;;;;;5105147;27;20491;-67
2022/06/23 00:47:20;;;;;;;2.05;0.40;;;;;;;;;;5106222;27;20039;-67
2022/06/23 00:49:46;;;;;;;1.45;0.45;;;;;;;;;;5091950;27;20047;-67
2022/06/23 00:52:19;;;;;;;1.58;0.43;;;;;;;;;;5106617;27;20134;-67
2022/06/23 00:58:16;;;;;;;3.40;0.65;;;;;;;;;;5024626;28;20061;-68
2022/06/23 01:00:43;;;;;;;2.22;0.57;;;;;;;;;;5084809;27;20042;-66
2022/06/23 01:03:13;;;;;;;2.85;0.52;;;;;;;;;;5106894;27;20579;-65
2022/06/23 01:06:06;;;;;;;3.38;0.63;;;;;;;;;;5105900;27;20047;-69
2022/06/23 01:08:37;;;;;;;3.72;0.60;;;;;;;;;;5099720;27;20078;-66
2022/06/23 01:11:07;;;;;;;4.65;0.68;;;;;;;;;;5106919;27;22060;-66
2022/06/23 01:13:41;;;;;;;1.70;0.50;;;;;;;;;;5106668;27;20086;-67
2022/06/23 01:16:11;;;;;;;2.70;0.40;;;;;;;;;;5106992;27;20035;-67
2022/06/23 01:18:50;;;;;;;2.40;0.70;;;;;;;;;;5061321;27;20043;-67
2022/06/23 01:21:20;;;;;;;2.83;0.50;;;;;;;;;;5099045;27;20118;-66
2022/06/23 01:24:04;;;;;;;1.80;0.60;;;;;;;;;;5071517;27;20031;-68
2022/06/23 01:26:51;;;;;;;5.35;0.57;;;;;;;;;;5089267;27;20130;-67
2022/06/23 01:29:24;;;;;;;1.50;0.43;;;;;;;;;;5086282;28;20078;-67
2022/06/23 01:31:50;;;;;;;;;;;;;;;;;;5086680;28;20070;-67
2022/06/23 01:34:35;;;;;;;1.80;0.50;;;;;;;;;;5087369;28;19916;-67
2022/06/23 01:37:13;;;;;;;3.42;0.68;;;;;;;;;;5086869;27;20059;-68
2022/06/23 01:39:46;;;;;;;2.17;0.40;;;;;;;;;;5085611;28;20036;-68
2022/06/23 01:42:23;;;;;;;1.08;0.43;;;;;;;;;;5090266;28;20023;-68
2022/06/23 01:44:52;;;;;;;1.08;0.55;;;;;;;;;;5080454;28;20143;-69
2022/06/23 01:47:35;;;;;;;1.08;0.40;;;;;;;;;;5072844;28;20176;-69
2022/06/23 01:50:14;;;;;;;2.67;0.63;;;;;;;;;;5087777;28;20405;-69
2022/06/23 01:52:45;;;;;;;0.85;0.30;;;;;;;;;;5088337;28;20156;-68
2022/06/23 01:55:23;;;;;;;1.45;0.45;;;;;;;;;;5071263;28;20127;-69
2022/06/23 01:57:53;;;;;;;0.57;0.30;;;;;;;;;;5089354;28;20920;-69
2022/06/23 02:00:27;;;;;;;1.25;0.40;;;;;;;;;;5089706;28;20040;-69
2022/06/23 02:03:13;;;;;;;1.77;0.60;;;;;;;;;;5088045;27;20039;-68
2022/06/23 02:05:55;;;;;;;2.42;0.63;;;;;;;;;;5106828;27;20119;-69
2022/06/23 02:08:25;;;;;;;3.60;0.60;;;;;;;;;;5107515;27;20054;-67
2022/06/23 02:11:10;;;;;;;1.73;0.43;;;;;;;;;;5079488;27;20088;-67
2022/06/23 02:13:43;;;;;;;3.78;0.82;;;;;;;;;;5086598;27;20055;-67
2022/06/23 02:16:19;;;;;;;0.68;0.30;;;;;;;;;;5087097;28;20036;-67
2022/06/23 02:18:46;;;;;;;1.92;0.55;;;;;;;;;;5083640;27;20910;-67
2022/06/23 02:21:26;;;;;;;1.95;0.52;;;;;;;;;;5086306;28;20155;-68
2022/06/23 02:24:02;;;;;;;1.60;0.55;;;;;;;;;;5098035;27;20452;-67
2022/06/23 02:26:33;;;;;;;4.40;0.52;;;;;;;;;;5086249;27;20156;-68
2022/06/23 02:29:02;;;;;;;1.35;0.52;;;;;;;;;;5088704;27;20086;-68
2022/06/23 02:31:43;;;;;;;1.27;0.40;;;;;;;;;;5104862;27;20174;-68
2022/06/23 02:34:16;;;;;;;1.55;0.52;;;;;;;;;;5104748;27;20035;-68
2022/06/23 02:36:43;;;;;;;1.02;0.40;;;;;;;;;;5075039;28;20740;-67
2022/06/23 02:39:21;;;;;;;1.10;0.40;;;;;;;;;;5068475;27;20032;-67
2022/06/23 02:41:52;;;;;;;1.88;0.50;;;;;;;;;;5104623;27;20067;-67
2022/06/23 02:44:22;;;;;;;2.05;0.50;;;;;;;;;;5102151;27;20040;-66
2022/06/23 02:47:00;;;;;;;1.52;0.50;;;;;;;;;;5090074;28;20032;-67
2022/06/23 02:49:42;;;;;;;5.85;0.50;;;;;;;;;;5081970;27;20101;-68
2022/06/23 02:52:44;;;;;;;1.30;0.43;;;;;;;;;;5084608;28;20403;-67
2022/06/23 02:55:17;;;;;;;2.42;0.73;;;;;;;;;;5026156;28;20071;-68
2022/06/23 02:57:43;;;;;;;;;;;;;;;;;;5092169;27;20043;-68
2022/06/23 03:00:36;;;;;;;0.82;0.40;;;;;;;;;;5102085;27;19916;-68
2022/06/23 03:03:07;;;;;;;1.70;0.47;;;;;;;;;;5098218;27;20886;-67
2022/06/23 03:05:40;;;;;;;2.95;0.50;;;;;;;;;;5103623;27;20145;-67
2022/06/23 03:08:12;;;;;;;1.27;0.43;;;;;;;;;;5101071;27;20044;-67
2022/06/23 03:10:38;;;;;;;1.67;0.45;;;;;;;;;;5104382;27;20042;-66
2022/06/23 03:13:11;;;;;;;2.30;0.55;;;;;;;;;;5101854;27;20074;-68
2022/06/23 03:15:47;;;;;;;1.77;0.60;;;;;;;;;;5100946;27;20042;-67
2022/06/23 03:18:20;;;;;;;2.72;0.50;;;;;;;;;;5100899;27;20860;-67
2022/06/23 03:20:56;;;;;;;1.40;0.45;;;;;;;;;;5103658;27;20044;-67
2022/06/23 03:23:38;;;;;;;1.95;0.50;;;;;;;;;;5102107;27;20071;-67
2022/06/23 03:26:32;;;;;;;1.88;0.55;;;;;;;;;;5089995;27;20082;-67
2022/06/23 03:28:59;;;;;;;1.35;0.38;;;;;;;;;;5079273;28;20081;-67
2022/06/23 03:31:43;;;;;;;1.35;0.47;;;;;;;;;;5082801;28;20032;-67
2022/06/23 03:34:13;;;;;;;1.02;0.40;;;;;;;;;;5086504;28;20513;-71
2022/06/23 03:36:44;;;;;;;3.20;0.60;;;;;;;;;;5084741;28;20028;-68
2022/06/23 03:42:35;;;;;;;3.65;0.50;;;;;;;;;;5097155;27;20117;-68
2022/06/23 03:45:17;;;;;;;1.65;0.50;;;;;;;;;;5074246;28;20868;-67
2022/06/23 03:47:55;;;;;;;1.45;0.50;;;;;;;;;;5083213;28;20044;-68
2022/06/23 03:50:29;;;;;;;2.25;0.40;;;;;;;;;;5088666;28;20497;-68
2022/06/23 03:52:58;;;;;;;1.60;0.55;;;;;;;;;;5082438;28;20048;-68
2022/06/23 03:55:42;;;;;;;2.17;0.50;;;;;;;;;;5065424;28;20575;-68
2022/06/23 03:58:14;;;;;;;2.10;0.60;;;;;;;;;;5082835;28;20048;-68
2022/06/23 04:00:43;;;;;;;1.63;0.40;;;;;;;;;;5073680;28;20531;-68
2022/06/23 04:03:36;;;;;;;1.10;0.40;;;;;;;;;;5083427;28;20495;-67
2022/06/23 04:06:09;;;;;;;2.08;0.60;;;;;;;;;;5081825;28;20051;-68
2022/06/23 04:08:42;;;;;;;3.95;0.60;;;;;;;;;;5083403;28;20051;-68
2022/06/23 04:13:56;;;;;;;1.98;0.70;;;;;;;;;;5087904;28;20166;-68
2022/06/23 04:16:24;;;;;;;1.65;0.52;;;;;;;;;;5087459;28;20036;-68
2022/06/23 04:18:52;;;;;;;2.92;0.70;;;;;;;;;;5088848;28;21791;-67
2022/06/23 04:21:24;;;;;;;1.80;0.55;;;;;;;;;;5089219;28;20158;-67
2022/06/23 04:23:52;;;;;;;3.00;0.68;;;;;;;;;;5088114;28;20658;-68
2022/06/23 04:26:19;;;;;;;2.67;0.60;;;;;;;;;;5090289;28;20044;-67
2022/06/23 04:28:48;;;;;;;2.35;0.60;;;;;;;;;;5072660;27;20381;-68
2022/06/23 04:31:16;;;;;;;3.55;0.60;;;;;;;;;;5096062;27;20042;-66
2022/06/23 04:33:43;;;;;;;4.78;0.85;;;;;;;;;;5088320;27;20108;-67
2022/06/23 04:36:24;;;;;;;5.35;1.42;;;;;;;;;;5089570;28;20062;-66
2022/06/23 04:38:57;;;;;;;2.22;0.70;;;;;;;;;;5087789;28;20047;-67
2022/06/23 04:41:35;;;;;;;2.50;0.75;;;;;;;;;;5088466;28;20131;-65
2022/06/23 04:44:05;;;;;;;5.60;1.20;;;;;;;;;;5085059;28;20452;-66
2022/06/23 04:46:34;;;;;;;3.40;1.02;;;;;;;;;;5087543;28;21042;-66
2022/06/23 04:49:03;;;;;;;1.27;0.40;;;;;;;;;;5085029;28;20043;-66
2022/06/23 04:51:35;;;;;;;3.42;0.80;;;;;;;;;;5086073;28;20043;-67
2022/06/23 04:54:10;;;;;;;3.38;0.60;;;;;;;;;;5084495;28;20156;-67
2022/06/23 04:56:49;;;;;;;2.22;0.68;;;;;;;;;;5086849;28;20039;-67
2022/06/23 04:59:32;;;;;;;1.95;0.55;;;;;;;;;;5085060;28;20082;-67
2022/06/23 05:02:01;;;;;;;1.65;0.50;;;;;;;;;;5101218;27;20052;-67
2022/06/23 05:04:30;;;;;;;3.80;0.60;;;;;;;;;;5085897;28;20105;-67
2022/06/23 05:06:58;;;;;;;2.38;0.60;;;;;;;;;;5086544;28;20101;-68
2022/06/23 05:09:38;;;;;;;1.50;0.50;;;;;;;;;;5052291;28;20396;-68
2022/06/23 05:12:13;;;;;;;2.88;0.70;;;;;;;;;;5099414;27;20782;-68
2022/06/23 05:14:46;;;;;;;2.05;0.70;;;;;;;;;;5086721;28;20036;-66
2022/06/23 05:17:23;;;;;;;3.38;0.90;;;;;;;;;;5087237;28;20146;-67
2022/06/23 05:19:53;;;;;;;1.67;0.60;;;;;;;;;;5079125;28;20040;-66
2022/06/23 05:22:28;;;;;;;1.65;0.50;;;;;;;;;;5093658;27;20071;-67
2022/06/23 05:24:56;;;;;;;3.65;0.65;;;;;;;;;;5083765;27;20036;-68
2022/06/23 05:27:34;;;;;;;1.58;0.43;;;;;;;;;;5085517;28;20385;-67
2022/06/23 05:30:07;;;;;;;3.35;0.70;;;;;;;;;;5051897;28;21862;-68
2022/06/23 05:32:55;;;;;;;2.72;0.80;;;;;;;;;;5086204;28;20052;-68
2022/06/23 05:35:43;;;;;;;3.25;0.77;;;;;;;;;;5084579;28;20044;-67
2022/06/23 05:38:17;;;;;;;4.57;0.80;;;;;;;;;;5085056;28;21299;-67
2022/06/23 05:40:57;;;;;;;2.92;0.70;;;;;;;;;;5081410;27;20034;-69
2022/06/23 05:43:24;;;;;;;2.45;0.70;;;;;;;;;;5084584;28;20930;-68
2022/06/23 05:45:56;;;;;;;2.97;0.68;;;;;;;;;;5086057;28;20424;-68
2022/06/23 05:48:28;;;;;;;2.90;0.77;;;;;;;;;;5082792;28;20040;-68
2022/06/23 05:51:12;;;;;;;7.95;0.90;;;;;;;;;;5082093;28;20055;-68
2022/06/23 05:54:01;;;;;;;2.70;0.80;;;;;;;;;;5083868;28;20056;-68
2022/06/23 05:56:39;;;;;;;3.42;0.60;;;;;;;;;;5084922;28;20040;-68
2022/06/23 05:59:11;;;;;;;2.20;0.70;;;;;;;;;;5085121;28;20051;-68
2022/06/23 06:02:01;;;;;;;1.60;0.50;;;;;;;;;;5083606;28;20504;-68
2022/06/23 06:04:50;;;;;;;2.83;0.50;;;;;;;;;;5083539;28;20085;-67
2022/06/23 06:07:18;;;;;;;2.35;0.60;;;;;;;;;;5085783;28;20082;-67
2022/06/23 06:09:46;;;;;;;2.00;0.70;;;;;;;;;;5083263;28;20048;-67
2022/06/23 06:12:18;;;;;;;2.67;0.70;;;;;;;;;;5086252;28;20043;-66
2022/06/23 06:15:08;;;;;;;2.25;0.60;;;;;;;;;;5085229;28;20032;-67
2022/06/23 06:17:35;;;;;;;1.77;0.60;;;;;;;;;;5079716;28;20424;-67
2022/06/23 06:20:06;;;;;;;2.65;0.65;;;;;;;;;;5084141;28;20075;-67
2022/06/23 06:22:52;;;;;;;2.00;0.60;;;;;;;;;;5083182;28;20032;-67
2022/06/23 06:25:23;;;;;;;1.88;0.43;;;;;;;;;;5085300;28;20067;-66
2022/06/23 06:27:49;;;;;;;2.70;0.73;;;;;;;;;;5086011;28;20106;-68
2022/06/23 06:30:23;;;;;;;5.43;0.70;;;;;;;;;;5102585;27;20055;-68
2022/06/23 06:32:49;;;;;;;2.05;0.70;;;;;;;;;;5109127;27;20138;-68
2022/06/23 06:35:24;;;;;;;2.40;0.80;;;;;;;;;;5109203;27;20466;-69
2022/06/23 06:37:53;;;;;;;2.50;0.70;;;;;;;;;;5107917;27;20118;-68
2022/06/23 06:40:20;;;;;;;2.30;0.70;;;;;;;;;;5107638;27;20467;-68
2022/06/23 06:42:48;;;;;;;2.08;0.60;;;;;;;;;;5089076;27;20063;-69
2022/06/23 06:45:18;;;;;;;2.03;0.70;;;;;;;;;;5090368;27;20055;-69
2022/06/23 06:47:45;;;;;;;3.67;0.90;;;;;;;;;;5084746;27;20044;-68
2022/06/23 06:50:29;;;;;;;3.70;0.95;;;;;;;;;;5084367;27;20794;-68
2022/06/23 06:52:58;;;;;;;2.88;0.70;;;;;;;;;;5105825;27;20529;-68
2022/06/23 06:55:34;;;;;;;3.70;0.75;;;;;;;;;;5095002;27;20068;-68
2022/06/23 06:58:09;;;;;;;2.60;0.70;;;;;;;;;;5072182;28;20093;-68
2022/06/23 07:00:39;;;;;;;2.25;0.90;;;;;;;;;;5102766;27;20086;-67
2022/06/23 07:03:06;;;;;;;2.25;0.77;;;;;;;;;;5098946;27;20042;-68
2022/06/23 07:05:42;;;;;;;4.32;1.08;;;;;;;;;;5077867;28;20036;-67
2022/06/23 07:08:09;;;;;;;3.03;0.90;;;;;;;;;;5092981;27;20071;-67
2022/06/23 07:10:52;;;;;;;5.25;1.20;;;;;;;;;;5106027;27;20139;-68
2022/06/23 07:13:22;;;;;;;2.78;0.80;;;;;;;;;;5100942;27;20075;-67
2022/06/23 07:15:54;;;;;;;4.00;1.00;;;;;;;;;;5105652;27;20058;-67
2022/06/23 07:18:30;;;;;;;2.70;0.90;;;;;;;;;;5103929;27;20111;-67
2022/06/23 07:21:03;;;;;;;2.35;0.70;;;;;;;;;;5103593;27;20403;-67
2022/06/23 07:23:41;;;;;;;3.78;0.82;;;;;;;;;;5104358;27;20116;-68
2022/06/23 07:26:23;;;;;;;6.43;0.98;;;;;;;;;;5109047;27;20479;-67
2022/06/23 07:28:53;;;;;;;2.17;0.80;;;;;;;;;;5103582;27;20411;-68
2022/06/23 07:31:37;;;;;;;4.57;1.00;;;;;;;;;;5103862;27;20573;-68
2022/06/23 07:34:06;;;;;;;4.50;0.90;;;;;;;;;;5105158;27;20153;-68
2022/06/23 07:36:38;;;;;;;3.17;0.90;;;;;;;;;;5107712;27;20031;-68
2022/06/23 07:39:10;;;;;;;7.90;0.80;;;;;;;;;;5107171;27;20059;-67
2022/06/23 07:41:43;;;;;;;3.53;0.75;;;;;;;;;;5106522;27;20071;-67
2022/06/23 07:44:20;;;;;;;3.55;0.80;;;;;;;;;;5106785;27;20036;-67
2022/06/23 07:46:47;;;;;;;1.65;0.55;;;;;;;;;;5105167;27;20134;-67
2022/06/23 07:49:14;;;;;;;2.90;0.80;;;;;;;;;;5104383;27;20067;-67
2022/06/23 07:51:41;;;;;;;2.72;0.80;;;;;;;;;;5106285;27;20066;-67
2022/06/23 07:54:11;;;;;;;6.18;1.08;;;;;;;;;;5106868;27;20082;-67
2022/06/23 07:56:39;;;;;;;3.22;1.00;;;;;;;;;;5107000;27;21762;-68
2022/06/23 07:59:10;;;;;;;4.57;0.93;;;;;;;;;;5106708;27;20047;-67
2022/06/23 08:01:55;;;;;;;2.83;0.90;;;;;;;;;;5105485;27;20088;-67
2022/06/23 08:04:33;;;;;;;4.00;0.93;;;;;;;;;;5106216;27;20039;-68
2022/06/23 08:07:04;;;;;;;2.80;0.80;;;;;;;;;;5106484;28;20483;-67
2022/06/23 08:09:52;;;;;;;2.40;0.60;;;;;;;;;;5105208;28;20063;-68
2022/06/23 08:18:14;;;;;;;5.20;0.80;;;;;;;;;;5073851;28;20050;-68
2022/06/23 08:20:43;;;;;;;1.55;0.55;;;;;;;;;;5104093;28;21081;-67
2022/06/23 08:23:11;;;;;;;5.53;1.55;;;;;;;;;;5102856;28;20027;-68
2022/06/23 08:25:38;;;;;;;4.07;1.40;;;;;;;;;;5103380;28;20035;-68
2022/06/23 08:28:05;;;;;;;4.10;1.42;;;;;;;;;;5107350;28;20062;-68
2022/06/23 08:30:36;;;;;;;3.08;1.00;;;;;;;;;;5107359;28;20040;-68
2022/06/23 08:33:03;;;;;;;2.50;0.80;;;;;;;;;;5108914;28;20664;-68
2022/06/23 08:35:50;;;;;;;7.35;2.75;;;;;;;;;;5109154;27;20085;-68
2022/06/23 08:38:17;;;;;;;7.90;2.60;;;;;;;;;;5104319;28;20050;-68
2022/06/23 08:40:49;;;;;;;7.35;2.50;;;;;;;;;;5104628;28;20042;-68
2022/06/23 08:43:35;;;;;;;5.32;1.10;;;;;;;;;;5106687;28;20118;-68
2022/06/23 08:46:11;;;;;;;4.35;0.80;;;;;;;;;;5107804;28;20507;-67
2022/06/23 08:48:56;;;;;;;3.78;0.70;;;;;;;;;;5105228;28;20097;-68
2022/06/23 08:51:31;;;;;;;2.10;0.80;;;;;;;;;;5104053;28;20069;-68
2022/06/23 08:54:04;;;;;;;1.95;0.63;;;;;;;;;;5103276;28;20048;-68
2022/06/23 08:56:51;;;;;;;3.83;0.65;;;;;;;;;;5103982;28;20042;-68
2022/06/23 08:59:24;;;;;;;2.83;0.70;;;;;;;;;;5068751;27;20039;-67
2022/06/23 09:02:12;;;;;;;2.45;0.70;;;;;;;;;;5107458;27;20146;-67
2022/06/23 09:04:42;;;;;;;3.63;0.90;;;;;;;;;;5108757;27;20051;-67
2022/06/23 09:07:14;;;;;;;2.85;0.70;;;;;;;;;;5106829;27;20392;-67
2022/06/23 09:09:41;;;;;;;3.03;0.70;;;;;;;;;;5106156;27;20052;-67
2022/06/23 09:12:17;;;;;;;2.60;0.60;;;;;;;;;;5108779;27;20031;-67
2022/06/23 09:14:44;;;;;;;2.72;0.70;;;;;;;;;;5092432;27;20052;-66
2022/06/23 09:17:42;;;;;;;4.40;0.82;;;;;;;;;;5095856;27;20154;-67
2022/06/23 09:20:28;;;;;;;4.63;1.80;;;;;;;;;;5063751;28;20044;-67
2022/06/23 09:23:04;;;;;;;4.55;1.38;;;;;;;;;;5107415;27;20152;-67
2022/06/23 09:25:34;;;;;;;5.05;1.35;;;;;;;;;;5098390;27;20115;-67
2022/06/23 09:28:14;;;;;;;5.68;1.50;;;;;;;;;;5107908;27;20100;-68
2022/06/23 09:30:46;;;;;;;4.47;1.50;;;;;;;;;;5106915;27;20054;-67
2022/06/23 09:33:13;;;;;;;5.25;1.33;;;;;;;;;;5107583;27;20452;-68
2022/06/23 09:35:46;;;;;;;4.32;1.13;;;;;;;;;;5107806;27;20036;-67
2022/06/23 09:38:20;;;;;;;2.72;0.75;;;;;;;;;;5078919;28;20051;-67
2022/06/23 09:40:47;;;;;;;8.05;1.00;;;;;;;;;;5104545;27;20032;-67
2022/06/23 09:43:40;;;;;;;2.33;0.80;;;;;;;;;;5093755;27;20032;-67
2022/06/23 09:46:25;;;;;;;3.95;0.90;;;;;;;;;;5060633;28;20052;-67
2022/06/23 09:48:57;;;;;;;4.45;1.02;;;;;;;;;;5066982;28;20448;-67
2022/06/23 09:51:30;;;;;;;4.05;0.93;;;;;;;;;;5054320;28;20040;-67
2022/06/23 09:54:13;;;;;;;4.43;1.00;;;;;;;;;;5070378;28;20101;-67
2022/06/23 09:56:48;;;;;;;4.13;0.90;;;;;;;;;;5071236;28;20109;-68
2022/06/23 09:59:22;;;;;;;7.60;0.90;;;;;;;;;;5073457;28;20049;-68
2022/06/23 10:01:51;;;;;;;2.20;0.77;;;;;;;;;;5071568;28;20037;-68
2022/06/23 10:04:26;;;;;;;4.82;0.70;;;;;;;;;;5073879;28;20046;-66
2022/06/23 10:07:00;;;;;;;2.15;0.77;;;;;;;;;;5071736;28;20040;-67
2022/06/23 10:09:29;;;;;;;1.83;0.63;;;;;;;;;;5054594;28;20047;-67
2022/06/23 10:12:03;;;;;;;2.58;0.80;;;;;;;;;;5071850;28;20078;-68
2022/06/23 10:14:41;;;;;;;2.13;0.63;;;;;;;;;;5069739;28;20049;-67
2022/06/23 10:17:21;;;;;;;3.25;0.60;;;;;;;;;;5086229;27;20051;-67
2022/06/23 10:19:54;;;;;;;3.88;0.90;;;;;;;;;;5103156;27;20046;-68
2022/06/23 10:22:21;;;;;;;1.55;0.50;;;;;;;;;;5108537;27;20032;-68
2022/06/23 10:25:00;;;;;;;2.03;0.70;;;;;;;;;;5088242;27;20043;-68
2022/06/23 10:27:26;;;;;;;2.30;0.70;;;;;;;;;;5073470;28;20036;-69
2022/06/23 10:30:05;;;;;;;4.13;0.80;;;;;;;;;;5110996;27;20047;-68
2022/06/23 10:32:31;;;;;;;2.90;0.80;;;;;;;;;;5084969;28;20067;-68
2022/06/23 10:35:17;;;;;;;3.25;0.85;;;;;;;;;;5090127;28;20770;-68
2022/06/23 10:38:02;;;;;;;2.28;0.65;;;;;;;;;;5085813;28;20044;-69
2022/06/23 10:40:38;;;;;;;2.70;0.80;;;;;;;;;;5085346;28;20474;-69
2022/06/23 10:43:05;;;;;;;8.13;0.90;;;;;;;;;;5069791;28;20036;-68
2022/06/23 10:45:34;;;;;;;3.25;0.90;;;;;;;;;;5086829;28;20245;-68
2022/06/23 10:48:17;;;;;;;2.50;0.90;;;;;;;;;;5085592;28;20044;-68
2022/06/23 10:50:50;;;;;;;5.95;0.90;;;;;;;;;;5082512;28;20035;-68
2022/06/23 10:53:16;;;;;;;2.63;0.90;;;;;;;;;;5086455;28;20385;-68
2022/06/23 10:55:43;;;;;;;3.03;0.80;;;;;;;;;;5085019;28;20392;-68
2022/06/23 10:58:15;;;;;;;2.85;0.98;;;;;;;;;;5084873;28;20145;-68
2022/06/23 11:01:20;;;;;;;3.97;0.90;;;;;;;;;;5087709;28;20170;-68
2022/06/23 11:03:53;;;;;;;3.40;0.90;;;;;;;;;;5008648;28;20108;-68
2022/06/23 11:06:19;;;;;;;2.85;0.95;;;;;;;;;;4997762;28;20042;-68
2022/06/23 11:09:12;;;;;;;2.55;0.93;;;;;;;;;;5042790;27;20069;-67
2022/06/23 11:11:49;;;;;;;4.28;0.98;;;;;;;;;;5073676;27;20036;-67
2022/06/23 11:14:25;;;;;;;3.25;1.00;;;;;;;;;;5105550;27;20047;-68
2022/06/23 11:17:04;;;;;;;2.75;1.00;;;;;;;;;;5069595;28;20050;-68
2022/06/23 11:19:36;;;;;;;2.92;0.90;;;;;;;;;;5083761;28;20074;-68
2022/06/23 11:22:18;;;;;;;3.33;0.90;;;;;;;;;;5087685;28;20043;-68
2022/06/23 11:24:54;;;;;;;2.25;0.82;;;;;;;;;;5082099;28;20067;-67
2022/06/23 11:27:40;;;;;;;3.45;0.90;;;;;;;;;;5084118;28;20048;-67
2022/06/23 11:30:07;;;;;;;2.72;0.70;;;;;;;;;;5104379;27;20058;-67
2022/06/23 11:32:44;;;;;;;6.72;2.80;;;;;;;;;;5094913;27;20046;-67
2022/06/23 11:35:18;;;;;;;7.90;5.15;;;;;;;;;;5094357;27;20044;-67
2022/06/23 11:37:53;;;;;;;7.07;4.93;;;;;;;;;;5101105;27;20043;-68
2022/06/23 11:40:20;;;;;;;9.90;7.30;;;;;;;;;;5104367;27;20035;-67
2022/06/23 11:42:55;;;;;;;11.77;8.85;;;;;;;;;;5104927;27;20062;-67
2022/06/23 11:45:25;;;;;;;13.15;9.55;;;;;;;;;;5105918;27;20039;-67
2022/06/23 11:48:10;;;;;;;26.58;11.88;;;;;;;;;;5104459;27;20514;-67
2022/06/23 11:50:37;;;;;;;15.45;9.93;;;;;;;;;;5083258;28;20043;-68
2022/06/23 11:53:10;;;;;;;15.77;10.65;;;;;;;;;;5093897;27;20071;-68
2022/06/23 11:55:44;;;;;;;13.75;10.55;;;;;;;;;;5098876;28;20062;-68
2022/06/23 11:58:13;;;;;;;13.73;9.35;;;;;;;;;;5108053;27;20395;-68
2022/06/23 12:00:58;;;;;;;15.10;10.93;;;;;;;;;;5112416;27;20099;-68
2022/06/23 12:03:43;;;;;;;18.05;11.35;;;;;;;;;;5113544;28;20036;-68
2022/06/23 12:06:12;;;;;;;14.98;10.05;;;;;;;;;;5110092;27;20338;-69
2022/06/23 12:08:48;;;;;;;17.92;10.80;;;;;;;;;;5110833;28;20027;-69
2022/06/23 12:11:14;;;;;;;17.25;10.30;;;;;;;;;;5107654;28;20039;-69
2022/06/23 12:13:41;;;;;;;18.02;10.00;;;;;;;;;;5103414;28;20457;-69
2022/06/23 12:16:08;;;;;;;15.73;9.90;;;;;;;;;;5104514;28;20035;-69
2022/06/23 12:18:47;;;;;;;15.48;10.57;;;;;;;;;;5103502;28;20408;-68
2022/06/23 12:21:13;;;;;;;14.48;9.68;;;;;;;;;;5103925;28;20043;-68
2022/06/23 12:23:49;;;;;;;15.90;9.23;;;;;;;;;;5065373;28;20043;-68
2022/06/23 12:26:30;;;;;;;17.20;9.95;;;;;;;;;;5096947;28;20035;-68
2022/06/23 12:29:13;;;;;;;14.57;9.40;;;;;;;;;;5083513;28;20135;-67
2022/06/23 12:31:58;;;;;;;13.45;9.90;;;;;;;;;;5101582;27;20043;-66
2022/06/23 12:34:39;;;;;;;11.10;8.10;;;;;;;;;;5110337;27;20436;-65
2022/06/23 12:37:33;;;;;;;13.32;8.27;;;;;;;;;;5109896;27;20039;-69
2022/06/23 12:40:10;;;;;;;14.20;8.10;;;;;;;;;;5100194;27;22145;-67
2022/06/23 12:42:39;;;;;;;11.13;7.68;;;;;;;;;;5106445;27;20621;-67
2022/06/23 12:45:24;;;;;;;12.75;8.80;;;;;;;;;;5109126;27;20083;-65
2022/06/23 12:48:10;;;;;;;10.80;7.97;;;;;;;;;;5089462;27;20100;-67
2022/06/23 12:50:43;;;;;;;12.52;8.27;;;;;;;;;;5105091;27;20060;-68
2022/06/23 12:53:16;;;;;;;12.57;7.95;;;;;;;;;;5107097;27;20055;-68
2022/06/23 12:55:42;;;;;;;10.07;7.28;;;;;;;;;;5096633;27;20043;-67
2022/06/23 12:58:09;;;;;;;11.88;8.18;;;;;;;;;;5085599;27;20175;-68
2022/06/23 13:00:38;;;;;;;11.95;7.68;;;;;;;;;;5103137;27;20038;-66
2022/06/23 13:03:16;;;;;;;11.45;8.10;;;;;;;;;;5100502;27;20138;-66
2022/06/23 13:05:48;;;;;;;11.07;7.50;;;;;;;;;;5106694;27;20051;-68
2022/06/23 13:08:38;;;;;;;11.82;8.30;;;;;;;;;;5098189;27;20051;-66
2022/06/23 13:11:15;;;;;;;13.82;8.73;;;;;;;;;;5107847;27;20102;-69
2022/06/23 13:13:56;;;;;;;11.38;7.88;;;;;;;;;;5105928;27;20059;-69
2022/06/23 13:16:28;;;;;;;10.50;7.75;;;;;;;;;;5088275;27;20066;-68
2022/06/23 13:19:14;;;;;;;11.27;7.70;;;;;;;;;;5106948;27;20566;-68
2022/06/23 13:21:41;;;;;;;9.18;6.65;;;;;;;;;;5067816;28;20118;-67
2022/06/23 13:24:10;;;;;;;10.05;7.20;;;;;;;;;;5084257;28;20158;-69
2022/06/23 13:26:47;;;;;;;11.23;6.72;;;;;;;;;;5085072;28;20039;-68
2022/06/23 13:29:14;;;;;;;10.43;7.00;;;;;;;;;;5093206;27;20520;-68
2022/06/23 13:32:02;;;;;;;11.48;6.97;;;;;;;;;;5086365;28;20447;-68
2022/06/23 13:34:30;;;;;;;9.70;6.32;;;;;;;;;;5086495;28;20044;-68
2022/06/23 13:37:01;;;;;;;12.52;7.47;;;;;;;;;;5087279;28;20032;-67
2022/06/23 13:39:48;;;;;;;13.40;7.13;;;;;;;;;;5085356;28;20071;-70
2022/06/23 13:42:18;;;;;;;10.52;6.90;;;;;;;;;;5086122;28;20136;-70
2022/06/23 13:45:03;;;;;;;12.15;7.97;;;;;;;;;;5101169;27;20067;-68
2022/06/23 13:47:34;;;;;;;9.85;6.72;;;;;;;;;;5054295;28;20177;-69
2022/06/23 13:50:01;;;;;;;10.15;6.90;;;;;;;;;;5087338;28;20557;-69
2022/06/23 13:52:27;;;;;;;12.77;7.90;;;;;;;;;;5085502;28;20050;-69
2022/06/23 13:55:05;;;;;;;14.73;8.07;;;;;;;;;;5086244;28;20505;-68
2022/06/23 13:57:32;;;;;;;14.40;8.95;;;;;;;;;;5084389;28;20036;-68
2022/06/23 14:00:17;;;;;;;13.77;8.88;;;;;;;;;;5100390;27;20073;-68
2022/06/23 14:03:00;;;;;;;14.60;8.90;;;;;;;;;;5085017;28;20068;-68
2022/06/23 14:05:38;;;;;;;12.43;8.55;;;;;;;;;;5086328;28;20054;-68
2022/06/23 14:08:08;;;;;;;13.18;8.77;;;;;;;;;;5067167;28;20562;-68
2022/06/23 14:10:44;;;;;;;12.98;8.02;;;;;;;;;;5084657;28;20070;-69
2022/06/23 14:13:10;;;;;;;12.63;7.63;;;;;;;;;;5085309;28;20052;-69
2022/06/23 14:15:49;;;;;;;11.63;8.00;;;;;;;;;;5085339;28;20042;-69
2022/06/23 14:18:21;;;;;;;11.43;7.68;;;;;;;;;;5086302;28;20044;-69
2022/06/23 14:21:13;;;;;;;10.00;7.25;;;;;;;;;;5052381;28;20131;-69
2022/06/23 14:23:49;;;;;;;10.07;7.43;;;;;;;;;;5072475;27;20090;-69
2022/06/23 14:26:26;;;;;;;16.73;9.13;;;;;;;;;;5072785;28;20570;-69
2022/06/23 14:28:59;;;;;;;12.35;8.07;;;;;;;;;;5096400;27;20464;-68
2022/06/23 14:31:26;;;;;;;;;;;;;;;;;;5086542;28;20111;-68
2022/06/23 14:33:55;;;;;;;11.70;7.13;;;;;;;;;;5086411;28;20592;-68
2022/06/23 14:36:40;;;;;;;13.05;7.00;;;;;;;;;;5069784;28;20043;-68
2022/06/23 14:39:15;;;;;;;12.13;7.85;;;;;;;;;;5071165;28;20044;-68
2022/06/23 14:42:14;;;;;;;11.13;7.30;;;;;;;;;;5087643;28;20098;-68
2022/06/23 14:44:53;;;;;;;11.32;7.57;;;;;;;;;;5062917;28;20062;-68
2022/06/23 14:47:35;;;;;;;13.88;8.02;;;;;;;;;;5089333;28;20079;-68
2022/06/23 14:50:16;;;;;;;12.52;7.75;;;;;;;;;;5108447;27;20036;-69
2022/06/23 14:52:46;;;;;;;15.88;7.97;;;;;;;;;;5106115;27;20111;-68
2022/06/23 14:55:20;;;;;;;15.20;7.40;;;;;;;;;;5106499;27;20028;-69
2022/06/23 14:58:04;;;;;;;12.05;7.95;;;;;;;;;;5105715;27;20080;-68
2022/06/23 15:00:43;;;;;;;13.48;7.45;;;;;;;;;;5085448;27;20068;-68
2022/06/23 15:03:28;;;;;;;10.60;7.43;;;;;;;;;;5105545;27;20048;-69
2022/06/23 15:06:00;;;;;;;10.48;6.90;;;;;;;;;;5103714;27;20035;-69
2022/06/23 15:08:38;;;;;;;13.52;7.88;;;;;;;;;;5103025;27;20546;-69
2022/06/23 15:11:08;;;;;;;21.42;7.97;;;;;;;;;;5101976;27;20044;-69
2022/06/23 15:13:37;;;;;;;12.00;7.88;;;;;;;;;;5102882;27;20138;-70
2022/06/23 15:16:04;;;;;;;12.00;7.78;;;;;;;;;;5104470;27;20067;-69
2022/06/23 15:18:34;;;;;;;10.80;6.57;;;;;;;;;;5103520;27;20673;-69
2022/06/23 15:21:00;;;;;;;15.40;7.70;;;;;;;;;;5106412;27;20042;-68
2022/06/23 15:23:34;;;;;;;11.52;7.13;;;;;;;;;;5105068;27;20043;-69
2022/06/23 15:26:23;;;;;;;11.52;6.90;;;;;;;;;;5106204;27;20333;-69
2022/06/23 15:28:50;;;;;;;10.80;6.90;;;;;;;;;;5105686;27;20153;-68
2022/06/23 15:31:27;;;;;;;11.88;6.45;;;;;;;;;;5104373;27;20035;-69
2022/06/23 15:33:58;;;;;;;8.93;4.80;;;;;;;;;;5104014;27;20047;-68
2022/06/23 15:36:30;;;;;;;8.88;5.47;;;;;;;;;;5094925;27;20051;-68
2022/06/23 15:38:57;;;;;;;7.55;2.60;;;;;;;;;;5098039;27;20068;-67
2022/06/23 15:41:30;;;;;;;4.60;1.55;;;;;;;;;;5091088;27;20813;-67